sensor_id;sensor_type;location;lat;lon;timestamp;P1;durP1;ratioP1;P2;durP2;ratioP2
74162;SDS011;62515;52.758;5.076;2022-08-06T00:01:53;4.07;;;1.55;;
74162;SDS011;62515;52.758;5.076;2022-08-06T00:04:21;2.83;;;1.35;;
74162;SDS011;62515;52.758;5.076;2022-08-06T00:06:50;3.53;;;1.13;;
74162;SDS011;62515;52.758;5.076;2022-08-06T00:09:18;6.63;;;1.30;;
74162;SDS011;62515;52.758;5.076;2022-08-06T00:11:47;4.43;;;1.40;;
74162;SDS011;62515;52.758;5.076;2022-08-06T00:14:26;3.15;;;1.40;;
74162;SDS011;62515;52.758;5.076;2022-08-06T00:16:53;4.35;;;1.98;;
74162;SDS011;62515;52.758;5.076;2022-08-06T00:19:21;5.13;;;1.40;;
74162;SDS011;62515;52.758;5.076;2022-08-06T00:21:48;6.60;;;1.73;;
74162;SDS011;62515;52.758;5.076;2022-08-06T00:24:17;2.75;;;1.52;;
74162;SDS011;62515;52.758;5.076;2022-08-06T00:26:54;7.22;;;1.80;;
74162;SDS011;62515;52.758;5.076;2022-08-06T00:29:32;3.15;;;2.03;;
74162;SDS011;62515;52.758;5.076;2022-08-06T00:32:13;4.57;;;1.75;;
74162;SDS011;62515;52.758;5.076;2022-08-06T00:34:49;4.18;;;1.63;;
74162;SDS011;62515;52.758;5.076;2022-08-06T00:37:17;4.97;;;1.55;;
74162;SDS011;62515;52.758;5.076;2022-08-06T00:39:44;3.67;;;1.55;;
74162;SDS011;62515;52.758;5.076;2022-08-06T00:42:12;5.18;;;1.50;;
74162;SDS011;62515;52.758;5.076;2022-08-06T00:44:43;5.13;;;1.73;;
74162;SDS011;62515;52.758;5.076;2022-08-06T00:47:13;3.70;;;1.73;;
74162;SDS011;62515;52.758;5.076;2022-08-06T00:50:02;5.25;;;1.63;;
74162;SDS011;62515;52.758;5.076;2022-08-06T00:52:32;6.13;;;1.85;;
74162;SDS011;62515;52.758;5.076;2022-08-06T00:55:00;6.25;;;2.05;;
74162;SDS011;62515;52.758;5.076;2022-08-06T00:57:27;4.25;;;1.70;;
74162;SDS011;62515;52.758;5.076;2022-08-06T00:59:57;4.15;;;1.65;;
74162;SDS011;62515;52.758;5.076;2022-08-06T01:02:26;3.53;;;1.63;;
74162;SDS011;62515;52.758;5.076;2022-08-06T01:04:54;2.05;;;1.45;;
74162;SDS011;62515;52.758;5.076;2022-08-06T01:07:41;4.70;;;1.98;;
74162;SDS011;62515;52.758;5.076;2022-08-06T01:10:17;7.47;;;2.03;;
74162;SDS011;62515;52.758;5.076;2022-08-06T01:12:52;4.25;;;2.05;;
74162;SDS011;62515;52.758;5.076;2022-08-06T01:15:21;4.20;;;1.88;;
74162;SDS011;62515;52.758;5.076;2022-08-06T01:18:09;3.83;;;1.85;;
74162;SDS011;62515;52.758;5.076;2022-08-06T01:20:42;5.05;;;1.80;;
74162;SDS011;62515;52.758;5.076;2022-08-06T01:23:42;2.65;;;1.50;;
74162;SDS011;62515;52.758;5.076;2022-08-06T01:26:25;4.25;;;1.65;;
74162;SDS011;62515;52.758;5.076;2022-08-06T01:29:05;4.97;;;1.90;;
74162;SDS011;62515;52.758;5.076;2022-08-06T01:31:41;8.02;;;1.95;;
74162;SDS011;62515;52.758;5.076;2022-08-06T01:34:14;3.88;;;1.90;;
74162;SDS011;62515;52.758;5.076;2022-08-06T01:36:51;4.18;;;1.90;;
74162;SDS011;62515;52.758;5.076;2022-08-06T01:39:26;4.78;;;2.25;;
74162;SDS011;62515;52.758;5.076;2022-08-06T01:42:16;3.35;;;1.92;;
74162;SDS011;62515;52.758;5.076;2022-08-06T01:45:04;3.72;;;2.22;;
74162;SDS011;62515;52.758;5.076;2022-08-06T01:47:36;6.45;;;2.35;;
74162;SDS011;62515;52.758;5.076;2022-08-06T01:50:21;2.83;;;1.95;;
74162;SDS011;62515;52.758;5.076;2022-08-06T01:52:53;5.93;;;2.30;;
74162;SDS011;62515;52.758;5.076;2022-08-06T01:55:26;4.85;;;2.25;;
74162;SDS011;62515;52.758;5.076;2022-08-06T01:58:16;5.38;;;2.20;;
74162;SDS011;62515;52.758;5.076;2022-08-06T02:00:57;5.68;;;2.30;;
74162;SDS011;62515;52.758;5.076;2022-08-06T02:03:29;8.02;;;2.78;;
74162;SDS011;62515;52.758;5.076;2022-08-06T02:06:17;3.42;;;2.15;;
74162;SDS011;62515;52.758;5.076;2022-08-06T02:08:48;3.08;;;2.08;;
74162;SDS011;62515;52.758;5.076;2022-08-06T02:11:19;4.55;;;2.30;;
74162;SDS011;62515;52.758;5.076;2022-08-06T02:16:37;5.22;;;2.30;;
74162;SDS011;62515;52.758;5.076;2022-08-06T02:19:08;3.67;;;2.13;;
74162;SDS011;62515;52.758;5.076;2022-08-06T02:21:41;4.05;;;2.33;;
74162;SDS011;62515;52.758;5.076;2022-08-06T02:24:18;5.95;;;2.88;;
74162;SDS011;62515;52.758;5.076;2022-08-06T02:26:49;8.13;;;2.13;;
74162;SDS011;62515;52.758;5.076;2022-08-06T02:29:17;3.17;;;1.88;;
74162;SDS011;62515;52.758;5.076;2022-08-06T02:31:48;3.92;;;2.33;;
74162;SDS011;62515;52.758;5.076;2022-08-06T02:34:18;4.88;;;2.42;;
74162;SDS011;62515;52.758;5.076;2022-08-06T02:36:57;3.17;;;2.03;;
74162;SDS011;62515;52.758;5.076;2022-08-06T02:39:29;4.32;;;2.28;;
74162;SDS011;62515;52.758;5.076;2022-08-06T02:42:19;5.07;;;2.35;;
74162;SDS011;62515;52.758;5.076;2022-08-06T02:44:52;3.95;;;2.22;;
74162;SDS011;62515;52.758;5.076;2022-08-06T02:47:29;3.97;;;2.03;;
74162;SDS011;62515;52.758;5.076;2022-08-06T02:50:21;3.90;;;2.08;;
74162;SDS011;62515;52.758;5.076;2022-08-06T02:52:55;5.72;;;2.28;;
74162;SDS011;62515;52.758;5.076;2022-08-06T02:55:30;8.23;;;2.50;;
74162;SDS011;62515;52.758;5.076;2022-08-06T02:58:01;4.30;;;2.30;;
74162;SDS011;62515;52.758;5.076;2022-08-06T03:00:41;7.07;;;2.22;;
74162;SDS011;62515;52.758;5.076;2022-08-06T03:03:21;3.45;;;1.90;;
74162;SDS011;62515;52.758;5.076;2022-08-06T03:06:01;5.80;;;2.22;;
74162;SDS011;62515;52.758;5.076;2022-08-06T03:08:32;6.35;;;2.33;;
74162;SDS011;62515;52.758;5.076;2022-08-06T03:11:02;6.15;;;2.50;;
74162;SDS011;62515;52.758;5.076;2022-08-06T03:13:31;5.60;;;2.67;;
74162;SDS011;62515;52.758;5.076;2022-08-06T03:16:01;5.07;;;2.22;;
74162;SDS011;62515;52.758;5.076;2022-08-06T03:18:51;6.78;;;2.38;;
74162;SDS011;62515;52.758;5.076;2022-08-06T03:21:40;5.28;;;2.63;;
74162;SDS011;62515;52.758;5.076;2022-08-06T03:24:20;4.05;;;2.20;;
74162;SDS011;62515;52.758;5.076;2022-08-06T03:26:52;4.88;;;2.50;;
74162;SDS011;62515;52.758;5.076;2022-08-06T03:29:22;3.88;;;2.60;;
74162;SDS011;62515;52.758;5.076;2022-08-06T03:31:51;7.00;;;2.40;;
74162;SDS011;62515;52.758;5.076;2022-08-06T03:34:25;6.28;;;2.40;;
74162;SDS011;62515;52.758;5.076;2022-08-06T03:36:55;9.10;;;2.55;;
74162;SDS011;62515;52.758;5.076;2022-08-06T03:39:26;3.85;;;1.98;;
74162;SDS011;62515;52.758;5.076;2022-08-06T03:41:55;5.57;;;2.35;;
74162;SDS011;62515;52.758;5.076;2022-08-06T03:44:34;6.00;;;2.03;;
74162;SDS011;62515;52.758;5.076;2022-08-06T03:49:36;5.40;;;2.22;;
74162;SDS011;62515;52.758;5.076;2022-08-06T03:52:07;5.38;;;2.30;;
74162;SDS011;62515;52.758;5.076;2022-08-06T03:54:48;3.42;;;2.10;;
74162;SDS011;62515;52.758;5.076;2022-08-06T03:57:18;6.70;;;2.35;;
74162;SDS011;62515;52.758;5.076;2022-08-06T04:00:07;6.18;;;2.08;;
74162;SDS011;62515;52.758;5.076;2022-08-06T04:02:42;4.78;;;2.33;;
74162;SDS011;62515;52.758;5.076;2022-08-06T04:05:15;8.85;;;2.65;;
74162;SDS011;62515;52.758;5.076;2022-08-06T04:07:46;4.07;;;2.20;;
74162;SDS011;62515;52.758;5.076;2022-08-06T04:10:22;5.65;;;2.15;;
74162;SDS011;62515;52.758;5.076;2022-08-06T04:13:00;6.18;;;2.00;;
74162;SDS011;62515;52.758;5.076;2022-08-06T04:15:50;6.28;;;2.63;;
74162;SDS011;62515;52.758;5.076;2022-08-06T04:18:19;3.28;;;1.90;;
74162;SDS011;62515;52.758;5.076;2022-08-06T04:20:52;5.40;;;2.13;;
74162;SDS011;62515;52.758;5.076;2022-08-06T04:23:40;4.00;;;2.10;;
74162;SDS011;62515;52.758;5.076;2022-08-06T04:26:12;5.72;;;2.10;;
74162;SDS011;62515;52.758;5.076;2022-08-06T04:28:42;5.68;;;2.00;;
74162;SDS011;62515;52.758;5.076;2022-08-06T04:31:24;8.15;;;2.10;;
74162;SDS011;62515;52.758;5.076;2022-08-06T04:34:15;4.38;;;1.95;;
74162;SDS011;62515;52.758;5.076;2022-08-06T04:36:47;4.10;;;2.00;;
74162;SDS011;62515;52.758;5.076;2022-08-06T04:39:19;3.88;;;1.92;;
74162;SDS011;62515;52.758;5.076;2022-08-06T04:42:04;5.30;;;2.00;;
74162;SDS011;62515;52.758;5.076;2022-08-06T04:44:32;2.28;;;1.48;;
74162;SDS011;62515;52.758;5.076;2022-08-06T04:47:00;6.43;;;2.10;;
74162;SDS011;62515;52.758;5.076;2022-08-06T04:49:28;4.07;;;2.10;;
74162;SDS011;62515;52.758;5.076;2022-08-06T04:52:21;5.45;;;2.22;;
74162;SDS011;62515;52.758;5.076;2022-08-06T04:55:08;8.93;;;2.58;;
74162;SDS011;62515;52.758;5.076;2022-08-06T04:57:49;6.60;;;2.47;;
74162;SDS011;62515;52.758;5.076;2022-08-06T05:00:29;7.88;;;2.70;;
74162;SDS011;62515;52.758;5.076;2022-08-06T05:03:16;4.50;;;2.20;;
74162;SDS011;62515;52.758;5.076;2022-08-06T05:06:05;3.67;;;2.08;;
74162;SDS011;62515;52.758;5.076;2022-08-06T05:08:40;6.07;;;2.00;;
74162;SDS011;62515;52.758;5.076;2022-08-06T05:11:19;3.55;;;1.75;;
74162;SDS011;62515;52.758;5.076;2022-08-06T05:13:51;4.47;;;2.08;;
74162;SDS011;62515;52.758;5.076;2022-08-06T05:16:21;9.05;;;2.10;;
74162;SDS011;62515;52.758;5.076;2022-08-06T05:18:51;5.05;;;2.60;;
74162;SDS011;62515;52.758;5.076;2022-08-06T05:21:42;10.75;;;1.95;;
74162;SDS011;62515;52.758;5.076;2022-08-06T05:24:33;5.28;;;2.33;;
74162;SDS011;62515;52.758;5.076;2022-08-06T05:27:20;4.88;;;2.05;;
74162;SDS011;62515;52.758;5.076;2022-08-06T05:29:49;5.38;;;1.80;;
74162;SDS011;62515;52.758;5.076;2022-08-06T05:32:20;3.53;;;1.67;;
74162;SDS011;62515;52.758;5.076;2022-08-06T05:34:50;4.20;;;1.80;;
74162;SDS011;62515;52.758;5.076;2022-08-06T05:37:19;5.07;;;1.85;;
74162;SDS011;62515;52.758;5.076;2022-08-06T05:40:08;3.22;;;1.98;;
74162;SDS011;62515;52.758;5.076;2022-08-06T05:42:37;7.10;;;2.47;;
74162;SDS011;62515;52.758;5.076;2022-08-06T05:45:04;11.25;;;2.20;;
74162;SDS011;62515;52.758;5.076;2022-08-06T05:47:36;6.63;;;1.90;;
74162;SDS011;62515;52.758;5.076;2022-08-06T05:50:22;8.93;;;1.80;;
74162;SDS011;62515;52.758;5.076;2022-08-06T05:52:53;4.22;;;2.17;;
74162;SDS011;62515;52.758;5.076;2022-08-06T05:55:25;5.05;;;2.03;;
74162;SDS011;62515;52.758;5.076;2022-08-06T05:58:04;5.72;;;2.20;;
74162;SDS011;62515;52.758;5.076;2022-08-06T06:00:36;6.30;;;2.20;;
74162;SDS011;62515;52.758;5.076;2022-08-06T06:03:11;5.68;;;2.33;;
74162;SDS011;62515;52.758;5.076;2022-08-06T06:05:53;3.70;;;1.80;;
74162;SDS011;62515;52.758;5.076;2022-08-06T06:08:41;10.90;;;2.42;;
74162;SDS011;62515;52.758;5.076;2022-08-06T06:11:26;5.05;;;1.85;;
74162;SDS011;62515;52.758;5.076;2022-08-06T06:14:21;5.47;;;1.90;;
74162;SDS011;62515;52.758;5.076;2022-08-06T06:17:08;5.88;;;1.73;;
74162;SDS011;62515;52.758;5.076;2022-08-06T06:19:46;4.28;;;1.83;;
74162;SDS011;62515;52.758;5.076;2022-08-06T06:22:24;4.72;;;1.50;;
74162;SDS011;62515;52.758;5.076;2022-08-06T06:24:59;2.25;;;1.20;;
74162;SDS011;62515;52.758;5.076;2022-08-06T06:27:33;4.53;;;1.73;;
74162;SDS011;62515;52.758;5.076;2022-08-06T06:30:13;3.83;;;1.58;;
74162;SDS011;62515;52.758;5.076;2022-08-06T06:33:07;2.78;;;1.70;;
74162;SDS011;62515;52.758;5.076;2022-08-06T06:35:46;7.32;;;1.40;;
74162;SDS011;62515;52.758;5.076;2022-08-06T06:38:23;4.38;;;1.40;;
74162;SDS011;62515;52.758;5.076;2022-08-06T06:40:58;2.05;;;0.98;;
74162;SDS011;62515;52.758;5.076;2022-08-06T06:43:48;3.17;;;0.90;;
74162;SDS011;62515;52.758;5.076;2022-08-06T06:46:20;5.80;;;1.20;;
74162;SDS011;62515;52.758;5.076;2022-08-06T06:49:07;3.53;;;1.05;;
74162;SDS011;62515;52.758;5.076;2022-08-06T06:52:00;2.25;;;1.00;;
74162;SDS011;62515;52.758;5.076;2022-08-06T06:54:37;5.18;;;1.00;;
74162;SDS011;62515;52.758;5.076;2022-08-06T06:57:09;1.70;;;1.00;;
74162;SDS011;62515;52.758;5.076;2022-08-06T06:59:45;3.47;;;1.10;;
74162;SDS011;62515;52.758;5.076;2022-08-06T07:02:35;2.22;;;0.90;;
74162;SDS011;62515;52.758;5.076;2022-08-06T07:05:09;1.88;;;0.90;;
74162;SDS011;62515;52.758;5.076;2022-08-06T07:07:43;1.67;;;1.20;;
74162;SDS011;62515;52.758;5.076;2022-08-06T07:10:15;4.40;;;1.40;;
74162;SDS011;62515;52.758;5.076;2022-08-06T07:12:45;2.92;;;1.15;;
74162;SDS011;62515;52.758;5.076;2022-08-06T07:15:21;3.53;;;1.10;;
74162;SDS011;62515;52.758;5.076;2022-08-06T07:17:50;3.83;;;1.20;;
74162;SDS011;62515;52.758;5.076;2022-08-06T07:20:27;3.83;;;1.27;;
74162;SDS011;62515;52.758;5.076;2022-08-06T07:22:57;3.45;;;1.95;;
74162;SDS011;62515;52.758;5.076;2022-08-06T07:25:46;2.40;;;1.20;;
74162;SDS011;62515;52.758;5.076;2022-08-06T07:28:21;4.40;;;1.13;;
74162;SDS011;62515;52.758;5.076;2022-08-06T07:30:55;4.78;;;1.33;;
74162;SDS011;62515;52.758;5.076;2022-08-06T07:33:30;6.18;;;1.83;;
74162;SDS011;62515;52.758;5.076;2022-08-06T07:36:18;3.15;;;1.17;;
74162;SDS011;62515;52.758;5.076;2022-08-06T07:38:52;3.00;;;1.10;;
74162;SDS011;62515;52.758;5.076;2022-08-06T07:41:25;3.40;;;1.40;;
74162;SDS011;62515;52.758;5.076;2022-08-06T07:44:13;3.30;;;1.10;;
74162;SDS011;62515;52.758;5.076;2022-08-06T07:46:50;3.08;;;1.30;;
74162;SDS011;62515;52.758;5.076;2022-08-06T07:49:21;2.72;;;0.90;;
74162;SDS011;62515;52.758;5.076;2022-08-06T07:52:12;2.58;;;0.90;;
74162;SDS011;62515;52.758;5.076;2022-08-06T07:54:43;2.30;;;0.90;;
74162;SDS011;62515;52.758;5.076;2022-08-06T07:57:11;4.53;;;0.90;;
74162;SDS011;62515;52.758;5.076;2022-08-06T07:59:45;1.88;;;0.82;;
74162;SDS011;62515;52.758;5.076;2022-08-06T08:04:55;2.35;;;0.95;;
74162;SDS011;62515;52.758;5.076;2022-08-06T08:10:22;2.17;;;0.90;;
74162;SDS011;62515;52.758;5.076;2022-08-06T08:12:54;2.60;;;1.13;;
74162;SDS011;62515;52.758;5.076;2022-08-06T08:15:28;1.40;;;0.73;;
74162;SDS011;62515;52.758;5.076;2022-08-06T08:18:02;4.57;;;0.80;;
74162;SDS011;62515;52.758;5.076;2022-08-06T08:20:31;1.48;;;0.80;;
74162;SDS011;62515;52.758;5.076;2022-08-06T08:23:02;3.45;;;1.10;;
74162;SDS011;62515;52.758;5.076;2022-08-06T08:25:33;2.42;;;1.00;;
74162;SDS011;62515;52.758;5.076;2022-08-06T08:30:38;3.45;;;1.00;;
74162;SDS011;62515;52.758;5.076;2022-08-06T08:33:07;4.50;;;1.42;;
74162;SDS011;62515;52.758;5.076;2022-08-06T08:35:40;2.03;;;1.30;;
74162;SDS011;62515;52.758;5.076;2022-08-06T08:38:25;2.22;;;1.30;;
74162;SDS011;62515;52.758;5.076;2022-08-06T08:40:55;2.63;;;1.30;;
74162;SDS011;62515;52.758;5.076;2022-08-06T08:43:25;3.45;;;1.20;;
74162;SDS011;62515;52.758;5.076;2022-08-06T08:46:16;3.90;;;1.17;;
74162;SDS011;62515;52.758;5.076;2022-08-06T08:49:00;1.83;;;0.82;;
74162;SDS011;62515;52.758;5.076;2022-08-06T08:51:31;1.85;;;1.33;;
74162;SDS011;62515;52.758;5.076;2022-08-06T08:54:08;3.45;;;1.10;;
74162;SDS011;62515;52.758;5.076;2022-08-06T08:56:41;2.67;;;1.15;;
74162;SDS011;62515;52.758;5.076;2022-08-06T08:59:30;1.73;;;1.00;;
74162;SDS011;62515;52.758;5.076;2022-08-06T09:02:19;2.40;;;1.10;;
74162;SDS011;62515;52.758;5.076;2022-08-06T09:04:51;2.45;;;0.90;;
74162;SDS011;62515;52.758;5.076;2022-08-06T09:07:19;1.98;;;0.95;;
74162;SDS011;62515;52.758;5.076;2022-08-06T09:10:02;4.35;;;1.05;;
74162;SDS011;62515;52.758;5.076;2022-08-06T09:12:30;4.78;;;1.15;;
74162;SDS011;62515;52.758;5.076;2022-08-06T09:17:39;2.75;;;1.00;;
74162;SDS011;62515;52.758;5.076;2022-08-06T09:20:28;2.55;;;1.08;;
74162;SDS011;62515;52.758;5.076;2022-08-06T09:22:55;4.75;;;1.30;;
74162;SDS011;62515;52.758;5.076;2022-08-06T09:25:35;3.15;;;1.00;;
74162;SDS011;62515;52.758;5.076;2022-08-06T09:28:27;2.38;;;1.10;;
74162;SDS011;62515;52.758;5.076;2022-08-06T09:31:00;3.10;;;1.23;;
74162;SDS011;62515;52.758;5.076;2022-08-06T09:33:29;3.33;;;1.30;;
74162;SDS011;62515;52.758;5.076;2022-08-06T09:36:18;2.75;;;1.10;;
74162;SDS011;62515;52.758;5.076;2022-08-06T09:38:56;2.42;;;1.00;;
74162;SDS011;62515;52.758;5.076;2022-08-06T09:41:27;2.30;;;1.10;;
74162;SDS011;62515;52.758;5.076;2022-08-06T09:43:56;6.28;;;1.20;;
74162;SDS011;62515;52.758;5.076;2022-08-06T09:46:39;2.20;;;1.25;;
74162;SDS011;62515;52.758;5.076;2022-08-06T09:49:14;2.55;;;1.10;;
74162;SDS011;62515;52.758;5.076;2022-08-06T09:52:14;2.80;;;1.13;;
74162;SDS011;62515;52.758;5.076;2022-08-06T09:54:43;3.38;;;1.30;;
74162;SDS011;62515;52.758;5.076;2022-08-06T09:57:11;3.47;;;1.10;;
74162;SDS011;62515;52.758;5.076;2022-08-06T09:59:41;3.20;;;1.23;;
74162;SDS011;62515;52.758;5.076;2022-08-06T10:04:38;3.72;;;1.30;;
74162;SDS011;62515;52.758;5.076;2022-08-06T10:07:09;2.75;;;1.25;;
74162;SDS011;62515;52.758;5.076;2022-08-06T10:09:51;3.05;;;1.30;;
74162;SDS011;62515;52.758;5.076;2022-08-06T10:12:21;4.18;;;1.60;;
74162;SDS011;62515;52.758;5.076;2022-08-06T10:14:52;1.90;;;1.25;;
74162;SDS011;62515;52.758;5.076;2022-08-06T10:17:21;5.20;;;1.40;;
74162;SDS011;62515;52.758;5.076;2022-08-06T10:22:35;3.42;;;1.23;;
74162;SDS011;62515;52.758;5.076;2022-08-06T10:25:16;1.60;;;1.10;;
74162;SDS011;62515;52.758;5.076;2022-08-06T10:27:55;2.03;;;1.10;;
74162;SDS011;62515;52.758;5.076;2022-08-06T10:30:23;3.10;;;1.10;;
74162;SDS011;62515;52.758;5.076;2022-08-06T10:32:52;3.22;;;1.10;;
74162;SDS011;62515;52.758;5.076;2022-08-06T10:35:24;1.63;;;1.10;;
74162;SDS011;62515;52.758;5.076;2022-08-06T10:37:56;2.38;;;1.00;;
74162;SDS011;62515;52.758;5.076;2022-08-06T10:40:31;2.75;;;0.90;;
74162;SDS011;62515;52.758;5.076;2022-08-06T10:43:03;2.20;;;0.93;;
74162;SDS011;62515;52.758;5.076;2022-08-06T10:45:37;2.88;;;1.00;;
74162;SDS011;62515;52.758;5.076;2022-08-06T10:48:14;1.80;;;0.80;;
74162;SDS011;62515;52.758;5.076;2022-08-06T10:51:03;4.72;;;1.10;;
74162;SDS011;62515;52.758;5.076;2022-08-06T10:56:20;2.15;;;0.82;;
74162;SDS011;62515;52.758;5.076;2022-08-06T10:59:06;2.65;;;0.80;;
74162;SDS011;62515;52.758;5.076;2022-08-06T11:01:43;2.33;;;0.90;;
74162;SDS011;62515;52.758;5.076;2022-08-06T11:04:23;1.48;;;0.73;;
74162;SDS011;62515;52.758;5.076;2022-08-06T11:07:04;1.52;;;0.80;;
74162;SDS011;62515;52.758;5.076;2022-08-06T11:10:07;1.67;;;0.77;;
74162;SDS011;62515;52.758;5.076;2022-08-06T11:13:18;2.63;;;0.90;;
74162;SDS011;62515;52.758;5.076;2022-08-06T11:16:21;2.17;;;0.70;;
74162;SDS011;62515;52.758;5.076;2022-08-06T11:18:57;4.05;;;0.77;;
74162;SDS011;62515;52.758;5.076;2022-08-06T11:21:36;2.47;;;0.90;;
74162;SDS011;62515;52.758;5.076;2022-08-06T11:24:25;0.80;;;0.60;;
74162;SDS011;62515;52.758;5.076;2022-08-06T11:26:52;2.38;;;0.80;;
74162;SDS011;62515;52.758;5.076;2022-08-06T11:29:28;2.35;;;0.70;;
74162;SDS011;62515;52.758;5.076;2022-08-06T11:41:51;1.05;;;0.60;;
74162;SDS011;62515;52.758;5.076;2022-08-06T11:44:30;0.85;;;0.52;;
74162;SDS011;62515;52.758;5.076;2022-08-06T11:47:07;0.68;;;0.50;;
74162;SDS011;62515;52.758;5.076;2022-08-06T11:49:40;1.58;;;0.57;;
74162;SDS011;62515;52.758;5.076;2022-08-06T11:55:08;3.28;;;0.80;;
74162;SDS011;62515;52.758;5.076;2022-08-06T11:57:48;1.50;;;0.50;;
74162;SDS011;62515;52.758;5.076;2022-08-06T12:00:22;1.48;;;0.50;;
74162;SDS011;62515;52.758;5.076;2022-08-06T12:02:55;1.80;;;0.50;;
74162;SDS011;62515;52.758;5.076;2022-08-06T12:05:33;1.85;;;0.40;;
74162;SDS011;62515;52.758;5.076;2022-08-06T12:08:14;0.95;;;0.40;;
74162;SDS011;62515;52.758;5.076;2022-08-06T12:14:04;1.42;;;0.50;;
74162;SDS011;62515;52.758;5.076;2022-08-06T12:17:05;1.45;;;0.50;;
74162;SDS011;62515;52.758;5.076;2022-08-06T12:19:37;0.65;;;0.40;;
74162;SDS011;62515;52.758;5.076;2022-08-06T12:22:28;2.55;;;0.60;;
74162;SDS011;62515;52.758;5.076;2022-08-06T12:24:57;1.90;;;0.60;;
74162;SDS011;62515;52.758;5.076;2022-08-06T12:27:37;3.67;;;0.80;;
74162;SDS011;62515;52.758;5.076;2022-08-06T12:30:15;0.70;;;0.50;;
74162;SDS011;62515;52.758;5.076;2022-08-06T12:33:03;2.85;;;0.70;;
74162;SDS011;62515;52.758;5.076;2022-08-06T12:35:48;2.13;;;0.60;;
74162;SDS011;62515;52.758;5.076;2022-08-06T12:38:17;3.80;;;0.63;;
74162;SDS011;62515;52.758;5.076;2022-08-06T12:40:53;8.95;;;0.80;;
74162;SDS011;62515;52.758;5.076;2022-08-06T12:43:22;0.95;;;0.32;;
74162;SDS011;62515;52.758;5.076;2022-08-06T12:46:10;1.38;;;0.50;;
74162;SDS011;62515;52.758;5.076;2022-08-06T12:48:48;2.00;;;0.45;;
74162;SDS011;62515;52.758;5.076;2022-08-06T12:51:16;3.90;;;0.50;;
74162;SDS011;62515;52.758;5.076;2022-08-06T12:53:54;0.77;;;0.40;;
74162;SDS011;62515;52.758;5.076;2022-08-06T12:56:24;0.85;;;0.55;;
74162;SDS011;62515;52.758;5.076;2022-08-06T12:58:57;0.60;;;0.40;;
74162;SDS011;62515;52.758;5.076;2022-08-06T13:01:28;2.88;;;0.40;;
74162;SDS011;62515;52.758;5.076;2022-08-06T13:04:18;0.82;;;0.40;;
74162;SDS011;62515;52.758;5.076;2022-08-06T13:06:46;3.13;;;0.35;;
74162;SDS011;62515;52.758;5.076;2022-08-06T13:09:16;0.45;;;0.40;;
74162;SDS011;62515;52.758;5.076;2022-08-06T13:11:46;2.58;;;0.52;;
74162;SDS011;62515;52.758;5.076;2022-08-06T13:14:17;5.32;;;0.68;;
74162;SDS011;62515;52.758;5.076;2022-08-06T13:16:46;1.77;;;0.50;;
74162;SDS011;62515;52.758;5.076;2022-08-06T13:19:24;1.00;;;0.40;;
74162;SDS011;62515;52.758;5.076;2022-08-06T13:21:59;0.85;;;0.32;;
74162;SDS011;62515;52.758;5.076;2022-08-06T13:24:31;0.80;;;0.50;;
74162;SDS011;62515;52.758;5.076;2022-08-06T13:27:01;1.35;;;0.50;;
74162;SDS011;62515;52.758;5.076;2022-08-06T13:29:33;2.55;;;0.60;;
74162;SDS011;62515;52.758;5.076;2022-08-06T13:32:23;0.65;;;0.30;;
74162;SDS011;62515;52.758;5.076;2022-08-06T13:35:04;1.08;;;0.40;;
74162;SDS011;62515;52.758;5.076;2022-08-06T13:37:43;2.90;;;0.43;;
74162;SDS011;62515;52.758;5.076;2022-08-06T13:40:35;1.50;;;0.50;;
74162;SDS011;62515;52.758;5.076;2022-08-06T13:43:07;0.90;;;0.50;;
74162;SDS011;62515;52.758;5.076;2022-08-06T13:45:34;1.25;;;0.40;;
74162;SDS011;62515;52.758;5.076;2022-08-06T13:48:22;1.90;;;0.40;;
74162;SDS011;62515;52.758;5.076;2022-08-06T13:50:50;1.88;;;0.50;;
74162;SDS011;62515;52.758;5.076;2022-08-06T13:53:17;1.00;;;0.40;;
74162;SDS011;62515;52.758;5.076;2022-08-06T13:55:45;1.02;;;0.40;;
74162;SDS011;62515;52.758;5.076;2022-08-06T13:58:28;2.70;;;0.40;;
74162;SDS011;62515;52.758;5.076;2022-08-06T14:00:56;2.13;;;0.55;;
74162;SDS011;62515;52.758;5.076;2022-08-06T14:03:23;1.08;;;0.50;;
74162;SDS011;62515;52.758;5.076;2022-08-06T14:05:53;1.42;;;0.43;;
74162;SDS011;62515;52.758;5.076;2022-08-06T14:08:22;1.27;;;0.50;;
74162;SDS011;62515;52.758;5.076;2022-08-06T14:11:01;1.23;;;0.60;;
74162;SDS011;62515;52.758;5.076;2022-08-06T14:13:28;3.75;;;0.60;;
74162;SDS011;62515;52.758;5.076;2022-08-06T14:15:57;1.63;;;0.55;;
74162;SDS011;62515;52.758;5.076;2022-08-06T14:18:27;2.70;;;0.70;;
74162;SDS011;62515;52.758;5.076;2022-08-06T14:21:02;1.15;;;0.50;;
74162;SDS011;62515;52.758;5.076;2022-08-06T14:23:29;1.08;;;0.50;;
74162;SDS011;62515;52.758;5.076;2022-08-06T14:28:52;7.10;;;0.77;;
74162;SDS011;62515;52.758;5.076;2022-08-06T14:34:23;1.45;;;0.68;;
74162;SDS011;62515;52.758;5.076;2022-08-06T14:37:04;1.00;;;0.43;;
74162;SDS011;62515;52.758;5.076;2022-08-06T14:39:40;0.85;;;0.57;;
74162;SDS011;62515;52.758;5.076;2022-08-06T14:42:25;0.93;;;0.60;;
74162;SDS011;62515;52.758;5.076;2022-08-06T14:45:13;1.23;;;0.60;;
74162;SDS011;62515;52.758;5.076;2022-08-06T14:47:46;1.65;;;0.60;;
74162;SDS011;62515;52.758;5.076;2022-08-06T14:50:26;0.93;;;0.50;;
74162;SDS011;62515;52.758;5.076;2022-08-06T14:53:05;0.52;;;0.43;;
74162;SDS011;62515;52.758;5.076;2022-08-06T14:55:31;1.25;;;0.52;;
74162;SDS011;62515;52.758;5.076;2022-08-06T14:57:58;1.77;;;0.60;;
74162;SDS011;62515;52.758;5.076;2022-08-06T15:00:33;1.85;;;0.40;;
74162;SDS011;62515;52.758;5.076;2022-08-06T15:03:03;1.83;;;0.60;;
74162;SDS011;62515;52.758;5.076;2022-08-06T15:05:33;2.80;;;0.60;;
74162;SDS011;62515;52.758;5.076;2022-08-06T15:08:22;0.85;;;0.50;;
74162;SDS011;62515;52.758;5.076;2022-08-06T15:10:49;1.20;;;0.57;;
74162;SDS011;62515;52.758;5.076;2022-08-06T15:13:17;1.65;;;0.70;;
74162;SDS011;62515;52.758;5.076;2022-08-06T15:15:45;1.83;;;0.60;;
74162;SDS011;62515;52.758;5.076;2022-08-06T15:18:15;0.80;;;0.60;;
74162;SDS011;62515;52.758;5.076;2022-08-06T15:21:03;1.88;;;0.70;;
74162;SDS011;62515;52.758;5.076;2022-08-06T15:23:42;2.88;;;0.70;;
74162;SDS011;62515;52.758;5.076;2022-08-06T15:26:20;1.17;;;0.60;;
74162;SDS011;62515;52.758;5.076;2022-08-06T15:29:07;0.90;;;0.50;;
74162;SDS011;62515;52.758;5.076;2022-08-06T15:31:36;2.22;;;0.50;;
74162;SDS011;62515;52.758;5.076;2022-08-06T15:34:05;2.30;;;0.80;;
74162;SDS011;62515;52.758;5.076;2022-08-06T15:36:37;1.63;;;0.68;;
74162;SDS011;62515;52.758;5.076;2022-08-06T15:39:26;1.60;;;0.50;;
74162;SDS011;62515;52.758;5.076;2022-08-06T15:42:13;2.80;;;0.70;;
74162;SDS011;62515;52.758;5.076;2022-08-06T15:44:43;2.25;;;0.90;;
74162;SDS011;62515;52.758;5.076;2022-08-06T15:47:11;2.08;;;0.70;;
74162;SDS011;62515;52.758;5.076;2022-08-06T15:49:57;2.63;;;0.90;;
74162;SDS011;62515;52.758;5.076;2022-08-06T15:52:30;0.93;;;0.60;;
74162;SDS011;62515;52.758;5.076;2022-08-06T15:55:00;0.88;;;0.60;;
74162;SDS011;62515;52.758;5.076;2022-08-06T15:57:41;2.05;;;0.90;;
74162;SDS011;62515;52.758;5.076;2022-08-06T16:00:27;2.58;;;0.70;;
74162;SDS011;62515;52.758;5.076;2022-08-06T16:02:54;2.35;;;0.70;;
74162;SDS011;62515;52.758;5.076;2022-08-06T16:05:21;1.55;;;0.75;;
74162;SDS011;62515;52.758;5.076;2022-08-06T16:08:08;3.53;;;0.77;;
74162;SDS011;62515;52.758;5.076;2022-08-06T16:10:58;2.13;;;0.73;;
74162;SDS011;62515;52.758;5.076;2022-08-06T16:13:25;2.28;;;0.95;;
74162;SDS011;62515;52.758;5.076;2022-08-06T16:15:53;6.97;;;1.27;;
74162;SDS011;62515;52.758;5.076;2022-08-06T16:18:20;5.70;;;2.83;;
74162;SDS011;62515;52.758;5.076;2022-08-06T16:20:57;5.43;;;2.85;;
74162;SDS011;62515;52.758;5.076;2022-08-06T16:23:31;2.53;;;1.13;;
74162;SDS011;62515;52.758;5.076;2022-08-06T16:26:19;2.28;;;0.90;;
74162;SDS011;62515;52.758;5.076;2022-08-06T16:29:06;4.00;;;0.88;;